sensor_id;sensor_type;location;lat;lon;timestamp;P1;durP1;ratioP1;P2;durP2;ratioP2
24151;SDS011;12311;50.866;4.332;2023-06-19T00:02:09;3.67;;;1.63;;
24151;SDS011;12311;50.866;4.332;2023-06-19T00:04:34;2.38;;;1.10;;
24151;SDS011;12311;50.866;4.332;2023-06-19T00:07:00;4.85;;;1.30;;
24151;SDS011;12311;50.866;4.332;2023-06-19T00:09:26;2.08;;;0.82;;
24151;SDS011;12311;50.866;4.332;2023-06-19T00:11:52;1.80;;;0.93;;
24151;SDS011;12311;50.866;4.332;2023-06-19T00:14:18;1.95;;;0.90;;
24151;SDS011;12311;50.866;4.332;2023-06-19T00:16:44;2.30;;;1.10;;
24151;SDS011;12311;50.866;4.332;2023-06-19T00:19:09;3.20;;;1.02;;
24151;SDS011;12311;50.866;4.332;2023-06-19T00:21:36;2.80;;;0.95;;
24151;SDS011;12311;50.866;4.332;2023-06-19T00:24:03;3.75;;;1.75;;
24151;SDS011;12311;50.866;4.332;2023-06-19T00:26:29;1.80;;;1.05;;
24151;SDS011;12311;50.866;4.332;2023-06-19T00:28:55;3.00;;;1.30;;
24151;SDS011;12311;50.866;4.332;2023-06-19T00:31:21;1.70;;;0.80;;
24151;SDS011;12311;50.866;4.332;2023-06-19T00:33:47;2.08;;;0.98;;
24151;SDS011;12311;50.866;4.332;2023-06-19T00:36:13;6.78;;;1.30;;
24151;SDS011;12311;50.866;4.332;2023-06-19T00:38:41;3.28;;;1.00;;
24151;SDS011;12311;50.866;4.332;2023-06-19T00:41:07;1.58;;;0.88;;
24151;SDS011;12311;50.866;4.332;2023-06-19T00:43:33;3.15;;;0.98;;
24151;SDS011;12311;50.866;4.332;2023-06-19T00:45:59;3.10;;;1.02;;
24151;SDS011;12311;50.866;4.332;2023-06-19T00:48:26;2.67;;;1.40;;
24151;SDS011;12311;50.866;4.332;2023-06-19T00:50:53;1.20;;;0.60;;
24151;SDS011;12311;50.866;4.332;2023-06-19T00:53:21;5.25;;;1.42;;
24151;SDS011;12311;50.866;4.332;2023-06-19T00:55:47;2.22;;;1.10;;
24151;SDS011;12311;50.866;4.332;2023-06-19T00:58:13;1.67;;;0.90;;
24151;SDS011;12311;50.866;4.332;2023-06-19T01:00:40;1.77;;;0.93;;
24151;SDS011;12311;50.866;4.332;2023-06-19T01:03:06;1.75;;;1.05;;
24151;SDS011;12311;50.866;4.332;2023-06-19T01:05:31;1.35;;;1.00;;
24151;SDS011;12311;50.866;4.332;2023-06-19T01:10:52;2.15;;;1.00;;
24151;SDS011;12311;50.866;4.332;2023-06-19T01:16:11;2.35;;;1.40;;
24151;SDS011;12311;50.866;4.332;2023-06-19T01:18:37;3.35;;;1.40;;
24151;SDS011;12311;50.866;4.332;2023-06-19T01:21:13;3.33;;;1.40;;
24151;SDS011;12311;50.866;4.332;2023-06-19T01:23:41;4.47;;;1.50;;
24151;SDS011;12311;50.866;4.332;2023-06-19T01:26:07;2.72;;;1.10;;
24151;SDS011;12311;50.866;4.332;2023-06-19T01:28:37;2.42;;;1.25;;
24151;SDS011;12311;50.866;4.332;2023-06-19T01:31:15;1.23;;;0.77;;
24151;SDS011;12311;50.866;4.332;2023-06-19T01:33:46;3.10;;;1.45;;
24151;SDS011;12311;50.866;4.332;2023-06-19T01:36:15;4.80;;;1.10;;
24151;SDS011;12311;50.866;4.332;2023-06-19T01:38:42;4.15;;;1.73;;
24151;SDS011;12311;50.866;4.332;2023-06-19T01:41:10;1.92;;;1.40;;
24151;SDS011;12311;50.866;4.332;2023-06-19T01:43:37;3.60;;;1.65;;
24151;SDS011;12311;50.866;4.332;2023-06-19T01:46:03;3.28;;;1.02;;
24151;SDS011;12311;50.866;4.332;2023-06-19T01:48:29;1.63;;;1.27;;
24151;SDS011;12311;50.866;4.332;2023-06-19T01:50:55;1.98;;;1.10;;
24151;SDS011;12311;50.866;4.332;2023-06-19T01:53:21;1.92;;;1.20;;
24151;SDS011;12311;50.866;4.332;2023-06-19T01:55:47;3.95;;;0.93;;
24151;SDS011;12311;50.866;4.332;2023-06-19T01:58:12;4.35;;;1.52;;
24151;SDS011;12311;50.866;4.332;2023-06-19T02:00:38;2.70;;;1.77;;
24151;SDS011;12311;50.866;4.332;2023-06-19T02:03:04;2.35;;;1.38;;
24151;SDS011;12311;50.866;4.332;2023-06-19T02:05:30;3.92;;;0.95;;
24151;SDS011;12311;50.866;4.332;2023-06-19T02:07:56;1.70;;;1.17;;
24151;SDS011;12311;50.866;4.332;2023-06-19T02:10:22;2.53;;;1.48;;
24151;SDS011;12311;50.866;4.332;2023-06-19T02:12:48;1.58;;;0.90;;
24151;SDS011;12311;50.866;4.332;2023-06-19T02:15:13;2.40;;;1.17;;
24151;SDS011;12311;50.866;4.332;2023-06-19T02:17:39;2.30;;;1.48;;
24151;SDS011;12311;50.866;4.332;2023-06-19T02:20:07;2.67;;;1.50;;
24151;SDS011;12311;50.866;4.332;2023-06-19T02:22:37;2.42;;;1.48;;
24151;SDS011;12311;50.866;4.332;2023-06-19T02:25:04;7.63;;;1.20;;
24151;SDS011;12311;50.866;4.332;2023-06-19T02:27:30;2.65;;;1.85;;
24151;SDS011;12311;50.866;4.332;2023-06-19T02:29:56;5.03;;;1.60;;
24151;SDS011;12311;50.866;4.332;2023-06-19T02:32:22;3.33;;;1.52;;
24151;SDS011;12311;50.866;4.332;2023-06-19T02:34:48;4.90;;;1.55;;
24151;SDS011;12311;50.866;4.332;2023-06-19T02:37:13;5.38;;;2.13;;
24151;SDS011;12311;50.866;4.332;2023-06-19T02:39:39;2.80;;;1.30;;
24151;SDS011;12311;50.866;4.332;2023-06-19T02:42:05;4.82;;;2.17;;
24151;SDS011;12311;50.866;4.332;2023-06-19T02:44:31;3.25;;;2.20;;
24151;SDS011;12311;50.866;4.332;2023-06-19T02:46:57;3.67;;;1.80;;
24151;SDS011;12311;50.866;4.332;2023-06-19T02:49:22;3.15;;;1.77;;
24151;SDS011;12311;50.866;4.332;2023-06-19T02:51:48;2.65;;;1.92;;
24151;SDS011;12311;50.866;4.332;2023-06-19T02:54:14;9.02;;;2.35;;
24151;SDS011;12311;50.866;4.332;2023-06-19T02:56:39;8.25;;;1.65;;
24151;SDS011;12311;50.866;4.332;2023-06-19T02:59:05;7.22;;;1.90;;
24151;SDS011;12311;50.866;4.332;2023-06-19T03:01:31;4.40;;;1.73;;
24151;SDS011;12311;50.866;4.332;2023-06-19T03:03:56;5.20;;;1.95;;
24151;SDS011;12311;50.866;4.332;2023-06-19T03:06:22;4.15;;;1.95;;
24151;SDS011;12311;50.866;4.332;2023-06-19T03:08:48;9.57;;;3.45;;
24151;SDS011;12311;50.866;4.332;2023-06-19T03:11:13;3.22;;;1.83;;
24151;SDS011;12311;50.866;4.332;2023-06-19T03:13:51;4.18;;;2.10;;
24151;SDS011;12311;50.866;4.332;2023-06-19T03:16:17;3.83;;;1.58;;
24151;SDS011;12311;50.866;4.332;2023-06-19T03:18:43;3.78;;;1.80;;
24151;SDS011;12311;50.866;4.332;2023-06-19T03:21:13;4.38;;;1.80;;
24151;SDS011;12311;50.866;4.332;2023-06-19T03:23:44;3.35;;;2.10;;
24151;SDS011;12311;50.866;4.332;2023-06-19T03:26:09;5.18;;;2.47;;
24151;SDS011;12311;50.866;4.332;2023-06-19T03:28:36;6.15;;;1.40;;
24151;SDS011;12311;50.866;4.332;2023-06-19T03:31:02;3.58;;;1.65;;
24151;SDS011;12311;50.866;4.332;2023-06-19T03:33:28;4.07;;;2.08;;
24151;SDS011;12311;50.866;4.332;2023-06-19T03:35:53;3.53;;;1.55;;
24151;SDS011;12311;50.866;4.332;2023-06-19T03:38:20;4.28;;;1.88;;
24151;SDS011;12311;50.866;4.332;2023-06-19T03:40:45;4.22;;;1.83;;
24151;SDS011;12311;50.866;4.332;2023-06-19T03:43:11;4.57;;;2.25;;
24151;SDS011;12311;50.866;4.332;2023-06-19T03:45:37;5.53;;;1.75;;
24151;SDS011;12311;50.866;4.332;2023-06-19T03:48:02;3.90;;;1.77;;
24151;SDS011;12311;50.866;4.332;2023-06-19T03:50:28;5.60;;;2.08;;
24151;SDS011;12311;50.866;4.332;2023-06-19T03:52:54;4.03;;;2.15;;
24151;SDS011;12311;50.866;4.332;2023-06-19T03:55:20;4.38;;;2.05;;
24151;SDS011;12311;50.866;4.332;2023-06-19T03:57:46;4.10;;;2.03;;
24151;SDS011;12311;50.866;4.332;2023-06-19T04:00:11;4.10;;;1.95;;
24151;SDS011;12311;50.866;4.332;2023-06-19T04:02:38;5.47;;;2.50;;
24151;SDS011;12311;50.866;4.332;2023-06-19T04:05:05;5.78;;;2.33;;
24151;SDS011;12311;50.866;4.332;2023-06-19T04:07:31;4.60;;;1.95;;
24151;SDS011;12311;50.866;4.332;2023-06-19T04:09:57;4.15;;;2.03;;
24151;SDS011;12311;50.866;4.332;2023-06-19T04:12:23;3.45;;;2.03;;
24151;SDS011;12311;50.866;4.332;2023-06-19T04:14:49;3.88;;;1.70;;
24151;SDS011;12311;50.866;4.332;2023-06-19T04:17:14;4.50;;;2.33;;
24151;SDS011;12311;50.866;4.332;2023-06-19T04:19:40;3.67;;;2.00;;
24151;SDS011;12311;50.866;4.332;2023-06-19T04:22:07;7.80;;;2.17;;
24151;SDS011;12311;50.866;4.332;2023-06-19T04:24:32;4.68;;;1.80;;
24151;SDS011;12311;50.866;4.332;2023-06-19T04:26:58;6.53;;;2.03;;
24151;SDS011;12311;50.866;4.332;2023-06-19T04:29:24;4.75;;;2.35;;
24151;SDS011;12311;50.866;4.332;2023-06-19T04:31:49;3.78;;;1.55;;
24151;SDS011;12311;50.866;4.332;2023-06-19T04:34:15;4.80;;;1.80;;
24151;SDS011;12311;50.866;4.332;2023-06-19T04:36:42;5.32;;;1.98;;
24151;SDS011;12311;50.866;4.332;2023-06-19T04:39:09;8.55;;;2.88;;
24151;SDS011;12311;50.866;4.332;2023-06-19T04:41:35;7.20;;;2.05;;
24151;SDS011;12311;50.866;4.332;2023-06-19T04:44:04;5.20;;;2.28;;
24151;SDS011;12311;50.866;4.332;2023-06-19T04:46:30;5.28;;;2.08;;
24151;SDS011;12311;50.866;4.332;2023-06-19T04:48:56;3.75;;;1.95;;
24151;SDS011;12311;50.866;4.332;2023-06-19T04:51:21;4.45;;;2.38;;
24151;SDS011;12311;50.866;4.332;2023-06-19T04:53:47;9.32;;;2.63;;
24151;SDS011;12311;50.866;4.332;2023-06-19T04:56:16;6.68;;;3.25;;
24151;SDS011;12311;50.866;4.332;2023-06-19T04:58:42;9.18;;;2.92;;
24151;SDS011;12311;50.866;4.332;2023-06-19T05:01:12;8.07;;;3.33;;
24151;SDS011;12311;50.866;4.332;2023-06-19T05:03:39;8.63;;;3.00;;
24151;SDS011;12311;50.866;4.332;2023-06-19T05:06:05;7.35;;;3.05;;
24151;SDS011;12311;50.866;4.332;2023-06-19T05:08:30;4.55;;;2.75;;
24151;SDS011;12311;50.866;4.332;2023-06-19T05:10:56;7.82;;;3.58;;
24151;SDS011;12311;50.866;4.332;2023-06-19T05:13:23;7.60;;;3.00;;
24151;SDS011;12311;50.866;4.332;2023-06-19T05:15:49;9.63;;;3.75;;
24151;SDS011;12311;50.866;4.332;2023-06-19T05:18:15;8.15;;;3.50;;
24151;SDS011;12311;50.866;4.332;2023-06-19T05:20:41;7.75;;;2.65;;
24151;SDS011;12311;50.866;4.332;2023-06-19T05:23:07;10.07;;;3.75;;
24151;SDS011;12311;50.866;4.332;2023-06-19T05:25:33;8.73;;;3.55;;
24151;SDS011;12311;50.866;4.332;2023-06-19T05:28:00;6.57;;;3.50;;
24151;SDS011;12311;50.866;4.332;2023-06-19T05:30:25;9.38;;;3.85;;
24151;SDS011;12311;50.866;4.332;2023-06-19T05:32:51;11.13;;;4.60;;
24151;SDS011;12311;50.866;4.332;2023-06-19T05:35:16;8.15;;;3.80;;
24151;SDS011;12311;50.866;4.332;2023-06-19T05:37:42;10.63;;;4.30;;
24151;SDS011;12311;50.866;4.332;2023-06-19T05:40:09;13.88;;;4.30;;
24151;SDS011;12311;50.866;4.332;2023-06-19T05:42:35;9.73;;;5.32;;
24151;SDS011;12311;50.866;4.332;2023-06-19T05:45:02;5.97;;;3.38;;
24151;SDS011;12311;50.866;4.332;2023-06-19T05:47:28;11.95;;;5.93;;
24151;SDS011;12311;50.866;4.332;2023-06-19T05:49:55;10.68;;;5.82;;
24151;SDS011;12311;50.866;4.332;2023-06-19T05:52:22;14.50;;;5.35;;
24151;SDS011;12311;50.866;4.332;2023-06-19T05:54:48;10.52;;;5.05;;
24151;SDS011;12311;50.866;4.332;2023-06-19T05:57:14;11.27;;;5.22;;
24151;SDS011;12311;50.866;4.332;2023-06-19T06:02:15;12.93;;;5.15;;
24151;SDS011;12311;50.866;4.332;2023-06-19T06:04:41;10.18;;;4.15;;
24151;SDS011;12311;50.866;4.332;2023-06-19T06:07:07;10.73;;;4.88;;
24151;SDS011;12311;50.866;4.332;2023-06-19T06:09:33;10.30;;;5.05;;
24151;SDS011;12311;50.866;4.332;2023-06-19T06:11:59;12.40;;;4.10;;
24151;SDS011;12311;50.866;4.332;2023-06-19T06:14:25;10.52;;;5.80;;
24151;SDS011;12311;50.866;4.332;2023-06-19T06:16:51;12.57;;;4.07;;
24151;SDS011;12311;50.866;4.332;2023-06-19T06:19:18;11.10;;;5.93;;
24151;SDS011;12311;50.866;4.332;2023-06-19T06:21:44;16.75;;;4.90;;
24151;SDS011;12311;50.866;4.332;2023-06-19T06:24:10;11.00;;;4.72;;
24151;SDS011;12311;50.866;4.332;2023-06-19T06:26:36;10.52;;;4.85;;
24151;SDS011;12311;50.866;4.332;2023-06-19T06:29:02;9.52;;;4.53;;
24151;SDS011;12311;50.866;4.332;2023-06-19T06:31:28;11.52;;;4.75;;
24151;SDS011;12311;50.866;4.332;2023-06-19T06:33:53;13.25;;;6.13;;
24151;SDS011;12311;50.866;4.332;2023-06-19T06:36:19;12.48;;;5.55;;
24151;SDS011;12311;50.866;4.332;2023-06-19T06:38:44;12.57;;;5.60;;
24151;SDS011;12311;50.866;4.332;2023-06-19T06:41:10;15.15;;;4.78;;
24151;SDS011;12311;50.866;4.332;2023-06-19T06:43:36;9.13;;;5.00;;
24151;SDS011;12311;50.866;4.332;2023-06-19T06:46:03;9.07;;;4.18;;
24151;SDS011;12311;50.866;4.332;2023-06-19T06:48:29;11.55;;;5.15;;
24151;SDS011;12311;50.866;4.332;2023-06-19T06:50:55;10.85;;;5.03;;
24151;SDS011;12311;50.866;4.332;2023-06-19T06:53:26;11.57;;;4.33;;
24151;SDS011;12311;50.866;4.332;2023-06-19T06:55:58;13.20;;;5.20;;
24151;SDS011;12311;50.866;4.332;2023-06-19T06:58:28;14.32;;;5.72;;
24151;SDS011;12311;50.866;4.332;2023-06-19T07:00:53;10.15;;;4.57;;
24151;SDS011;12311;50.866;4.332;2023-06-19T07:03:20;14.02;;;5.15;;
24151;SDS011;12311;50.866;4.332;2023-06-19T07:05:47;11.82;;;5.45;;
24151;SDS011;12311;50.866;4.332;2023-06-19T07:08:13;12.50;;;5.88;;
24151;SDS011;12311;50.866;4.332;2023-06-19T07:10:39;11.00;;;5.00;;
24151;SDS011;12311;50.866;4.332;2023-06-19T07:13:04;10.52;;;4.63;;
24151;SDS011;12311;50.866;4.332;2023-06-19T07:15:30;14.65;;;5.32;;
24151;SDS011;12311;50.866;4.332;2023-06-19T07:17:56;10.15;;;4.40;;
24151;SDS011;12311;50.866;4.332;2023-06-19T07:20:22;11.20;;;4.55;;
24151;SDS011;12311;50.866;4.332;2023-06-19T07:22:50;13.63;;;5.35;;
24151;SDS011;12311;50.866;4.332;2023-06-19T07:25:16;10.85;;;4.22;;
24151;SDS011;12311;50.866;4.332;2023-06-19T07:27:42;10.18;;;4.65;;
24151;SDS011;12311;50.866;4.332;2023-06-19T07:30:08;9.75;;;4.45;;
24151;SDS011;12311;50.866;4.332;2023-06-19T07:32:35;10.13;;;4.38;;
24151;SDS011;12311;50.866;4.332;2023-06-19T07:35:02;9.30;;;3.90;;
24151;SDS011;12311;50.866;4.332;2023-06-19T07:37:28;9.68;;;4.68;;
24151;SDS011;12311;50.866;4.332;2023-06-19T07:39:53;11.65;;;4.28;;
24151;SDS011;12311;50.866;4.332;2023-06-19T07:42:19;7.20;;;3.58;;
24151;SDS011;12311;50.866;4.332;2023-06-19T07:44:45;7.47;;;3.80;;
24151;SDS011;12311;50.866;4.332;2023-06-19T07:47:11;8.43;;;4.03;;
24151;SDS011;12311;50.866;4.332;2023-06-19T07:49:38;10.27;;;3.92;;
24151;SDS011;12311;50.866;4.332;2023-06-19T07:52:04;9.50;;;4.22;;
24151;SDS011;12311;50.866;4.332;2023-06-19T07:54:30;7.18;;;3.50;;
24151;SDS011;12311;50.866;4.332;2023-06-19T07:56:58;9.27;;;3.92;;
24151;SDS011;12311;50.866;4.332;2023-06-19T07:59:24;6.43;;;3.58;;
24151;SDS011;12311;50.866;4.332;2023-06-19T08:01:50;9.55;;;3.75;;
24151;SDS011;12311;50.866;4.332;2023-06-19T08:04:15;8.00;;;4.18;;
24151;SDS011;12311;50.866;4.332;2023-06-19T08:06:41;7.22;;;3.95;;
24151;SDS011;12311;50.866;4.332;2023-06-19T08:09:06;11.20;;;4.57;;
24151;SDS011;12311;50.866;4.332;2023-06-19T08:11:32;8.98;;;3.88;;
24151;SDS011;12311;50.866;4.332;2023-06-19T08:13:58;14.40;;;4.00;;
24151;SDS011;12311;50.866;4.332;2023-06-19T08:16:24;10.32;;;3.40;;
24151;SDS011;12311;50.866;4.332;2023-06-19T08:18:51;7.65;;;2.85;;
24151;SDS011;12311;50.866;4.332;2023-06-19T08:21:17;7.15;;;3.30;;
24151;SDS011;12311;50.866;4.332;2023-06-19T08:23:43;11.23;;;3.42;;
24151;SDS011;12311;50.866;4.332;2023-06-19T08:26:12;10.32;;;3.30;;
24151;SDS011;12311;50.866;4.332;2023-06-19T08:28:37;6.45;;;3.15;;
24151;SDS011;12311;50.866;4.332;2023-06-19T08:31:03;6.43;;;2.67;;
24151;SDS011;12311;50.866;4.332;2023-06-19T08:33:29;8.68;;;2.67;;
24151;SDS011;12311;50.866;4.332;2023-06-19T08:35:54;13.05;;;4.50;;
24151;SDS011;12311;50.866;4.332;2023-06-19T08:38:20;13.75;;;3.15;;
24151;SDS011;12311;50.866;4.332;2023-06-19T08:40:46;7.28;;;3.05;;
24151;SDS011;12311;50.866;4.332;2023-06-19T08:43:11;4.38;;;2.78;;
24151;SDS011;12311;50.866;4.332;2023-06-19T08:45:37;5.70;;;2.67;;
24151;SDS011;12311;50.866;4.332;2023-06-19T08:48:03;6.78;;;2.70;;
24151;SDS011;12311;50.866;4.332;2023-06-19T08:50:30;10.70;;;3.22;;
24151;SDS011;12311;50.866;4.332;2023-06-19T08:52:57;9.30;;;2.80;;
24151;SDS011;12311;50.866;4.332;2023-06-19T08:55:23;5.85;;;3.30;;
24151;SDS011;12311;50.866;4.332;2023-06-19T08:57:49;6.50;;;3.10;;
24151;SDS011;12311;50.866;4.332;2023-06-19T09:00:23;6.07;;;3.15;;
24151;SDS011;12311;50.866;4.332;2023-06-19T09:02:50;9.30;;;3.40;;
24151;SDS011;12311;50.866;4.332;2023-06-19T09:05:18;7.30;;;2.78;;
24151;SDS011;12311;50.866;4.332;2023-06-19T09:07:44;6.50;;;2.72;;
24151;SDS011;12311;50.866;4.332;2023-06-19T09:10:28;5.00;;;3.17;;
24151;SDS011;12311;50.866;4.332;2023-06-19T09:15:26;7.32;;;3.53;;
24151;SDS011;12311;50.866;4.332;2023-06-19T09:18:00;6.22;;;2.40;;
24151;SDS011;12311;50.866;4.332;2023-06-19T09:20:29;8.02;;;2.83;;
24151;SDS011;12311;50.866;4.332;2023-06-19T09:22:56;5.63;;;2.83;;
24151;SDS011;12311;50.866;4.332;2023-06-19T09:25:23;7.45;;;3.33;;
24151;SDS011;12311;50.866;4.332;2023-06-19T09:27:51;7.65;;;3.72;;
24151;SDS011;12311;50.866;4.332;2023-06-19T09:30:18;10.00;;;3.05;;
24151;SDS011;12311;50.866;4.332;2023-06-19T09:32:43;7.32;;;3.33;;
24151;SDS011;12311;50.866;4.332;2023-06-19T09:35:09;5.90;;;2.05;;
24151;SDS011;12311;50.866;4.332;2023-06-19T09:37:35;4.65;;;2.47;;
24151;SDS011;12311;50.866;4.332;2023-06-19T09:40:03;7.53;;;3.00;;
24151;SDS011;12311;50.866;4.332;2023-06-19T09:42:42;5.82;;;2.67;;
24151;SDS011;12311;50.866;4.332;2023-06-19T09:45:10;7.38;;;2.25;;
24151;SDS011;12311;50.866;4.332;2023-06-19T09:47:38;5.38;;;2.58;;
24151;SDS011;12311;50.866;4.332;2023-06-19T09:50:11;5.80;;;2.22;;
24151;SDS011;12311;50.866;4.332;2023-06-19T09:52:38;9.98;;;2.70;;
24151;SDS011;12311;50.866;4.332;2023-06-19T09:55:06;6.45;;;3.03;;
24151;SDS011;12311;50.866;4.332;2023-06-19T09:57:34;3.95;;;2.17;;
24151;SDS011;12311;50.866;4.332;2023-06-19T10:00:02;6.97;;;2.95;;
24151;SDS011;12311;50.866;4.332;2023-06-19T10:02:41;9.82;;;3.00;;
24151;SDS011;12311;50.866;4.332;2023-06-19T10:05:08;6.25;;;2.40;;
24151;SDS011;12311;50.866;4.332;2023-06-19T10:07:37;6.20;;;2.97;;
24151;SDS011;12311;50.866;4.332;2023-06-19T10:10:05;5.53;;;2.45;;
24151;SDS011;12311;50.866;4.332;2023-06-19T10:15:08;5.75;;;2.40;;
24151;SDS011;12311;50.866;4.332;2023-06-19T10:17:35;7.10;;;2.80;;
24151;SDS011;12311;50.866;4.332;2023-06-19T10:20:02;7.90;;;3.22;;
24151;SDS011;12311;50.866;4.332;2023-06-19T10:22:31;6.10;;;2.47;;
24151;SDS011;12311;50.866;4.332;2023-06-19T10:24:57;7.90;;;2.90;;
24151;SDS011;12311;50.866;4.332;2023-06-19T10:27:24;9.32;;;2.90;;
24151;SDS011;12311;50.866;4.332;2023-06-19T10:29:53;7.10;;;3.55;;
24151;SDS011;12311;50.866;4.332;2023-06-19T10:32:20;5.75;;;2.85;;
24151;SDS011;12311;50.866;4.332;2023-06-19T10:34:47;6.05;;;3.03;;
24151;SDS011;12311;50.866;4.332;2023-06-19T10:37:16;12.27;;;3.17;;
24151;SDS011;12311;50.866;4.332;2023-06-19T10:39:42;6.25;;;3.35;;
24151;SDS011;12311;50.866;4.332;2023-06-19T10:42:08;7.93;;;3.08;;
24151;SDS011;12311;50.866;4.332;2023-06-19T10:44:35;5.38;;;2.88;;
24151;SDS011;12311;50.866;4.332;2023-06-19T10:47:02;7.00;;;3.17;;
24151;SDS011;12311;50.866;4.332;2023-06-19T10:49:29;5.68;;;3.55;;
24151;SDS011;12311;50.866;4.332;2023-06-19T10:51:55;6.45;;;2.90;;
24151;SDS011;12311;50.866;4.332;2023-06-19T10:54:25;7.95;;;2.83;;
24151;SDS011;12311;50.866;4.332;2023-06-19T10:56:51;6.22;;;2.75;;
24151;SDS011;12311;50.866;4.332;2023-06-19T10:59:17;5.97;;;2.95;;
24151;SDS011;12311;50.866;4.332;2023-06-19T11:01:44;5.20;;;2.53;;
24151;SDS011;12311;50.866;4.332;2023-06-19T11:04:11;5.65;;;2.53;;
24151;SDS011;12311;50.866;4.332;2023-06-19T11:06:39;9.85;;;2.85;;
24151;SDS011;12311;50.866;4.332;2023-06-19T11:09:06;4.68;;;2.25;;
24151;SDS011;12311;50.866;4.332;2023-06-19T11:14:09;8.10;;;3.75;;
24151;SDS011;12311;50.866;4.332;2023-06-19T11:16:37;7.60;;;3.17;;
24151;SDS011;12311;50.866;4.332;2023-06-19T11:19:06;7.60;;;3.20;;
24151;SDS011;12311;50.866;4.332;2023-06-19T11:21:39;9.60;;;2.42;;
24151;SDS011;12311;50.866;4.332;2023-06-19T11:24:13;5.97;;;3.08;;
24151;SDS011;12311;50.866;4.332;2023-06-19T11:26:40;5.95;;;2.95;;
24151;SDS011;12311;50.866;4.332;2023-06-19T11:31:43;8.25;;;3.08;;
24151;SDS011;12311;50.866;4.332;2023-06-19T11:34:09;7.95;;;2.95;;
24151;SDS011;12311;50.866;4.332;2023-06-19T11:36:38;11.00;;;3.35;;
24151;SDS011;12311;50.866;4.332;2023-06-19T11:39:08;6.53;;;3.00;;
24151;SDS011;12311;50.866;4.332;2023-06-19T11:41:36;5.50;;;2.72;;
24151;SDS011;12311;50.866;4.332;2023-06-19T11:44:06;8.20;;;3.35;;
24151;SDS011;12311;50.866;4.332;2023-06-19T11:46:34;5.68;;;2.78;;
24151;SDS011;12311;50.866;4.332;2023-06-19T11:49:12;6.80;;;2.80;;
24151;SDS011;12311;50.866;4.332;2023-06-19T11:51:45;5.70;;;2.53;;
24151;SDS011;12311;50.866;4.332;2023-06-19T11:54:11;5.47;;;2.05;;
24151;SDS011;12311;50.866;4.332;2023-06-19T11:56:40;6.38;;;2.60;;
24151;SDS011;12311;50.866;4.332;2023-06-19T11:59:05;4.53;;;2.30;;
24151;SDS011;12311;50.866;4.332;2023-06-19T12:01:32;5.90;;;2.72;;
24151;SDS011;12311;50.866;4.332;2023-06-19T12:03:59;6.07;;;2.97;;
24151;SDS011;12311;50.866;4.332;2023-06-19T12:06:26;5.05;;;2.53;;
24151;SDS011;12311;50.866;4.332;2023-06-19T12:08:52;7.03;;;2.78;;
24151;SDS011;12311;50.866;4.332;2023-06-19T12:11:18;4.68;;;2.35;;
24151;SDS011;12311;50.866;4.332;2023-06-19T12:13:44;7.55;;;2.35;;
24151;SDS011;12311;50.866;4.332;2023-06-19T12:16:10;8.35;;;2.90;;
24151;SDS011;12311;50.866;4.332;2023-06-19T12:18:36;9.02;;;3.60;;
24151;SDS011;12311;50.866;4.332;2023-06-19T12:21:02;7.53;;;3.05;;
24151;SDS011;12311;50.866;4.332;2023-06-19T12:23:28;5.30;;;2.25;;
24151;SDS011;12311;50.866;4.332;2023-06-19T12:25:54;3.95;;;1.80;;
24151;SDS011;12311;50.866;4.332;2023-06-19T12:28:19;5.38;;;2.22;;
24151;SDS011;12311;50.866;4.332;2023-06-19T12:30:46;6.18;;;2.78;;
24151;SDS011;12311;50.866;4.332;2023-06-19T12:33:20;6.47;;;1.80;;
24151;SDS011;12311;50.866;4.332;2023-06-19T12:35:46;5.85;;;2.20;;
24151;SDS011;12311;50.866;4.332;2023-06-19T12:38:12;5.25;;;1.88;;
24151;SDS011;12311;50.866;4.332;2023-06-19T12:40:37;6.60;;;2.35;;
24151;SDS011;12311;50.866;4.332;2023-06-19T12:43:03;8.35;;;2.38;;
24151;SDS011;12311;50.866;4.332;2023-06-19T12:45:29;5.60;;;1.95;;
24151;SDS011;12311;50.866;4.332;2023-06-19T12:47:55;3.92;;;1.92;;
24151;SDS011;12311;50.866;4.332;2023-06-19T12:50:21;2.97;;;1.50;;
24151;SDS011;12311;50.866;4.332;2023-06-19T12:52:47;3.78;;;1.80;;
24151;SDS011;12311;50.866;4.332;2023-06-19T12:55:13;4.43;;;1.85;;
24151;SDS011;12311;50.866;4.332;2023-06-19T12:57:39;5.35;;;2.28;;
24151;SDS011;12311;50.866;4.332;2023-06-19T13:00:06;7.90;;;2.08;;
24151;SDS011;12311;50.866;4.332;2023-06-19T13:02:36;4.40;;;1.90;;
24151;SDS011;12311;50.866;4.332;2023-06-19T13:05:03;6.57;;;2.47;;
24151;SDS011;12311;50.866;4.332;2023-06-19T13:07:28;3.00;;;1.40;;
24151;SDS011;12311;50.866;4.332;2023-06-19T13:09:54;3.42;;;1.48;;
24151;SDS011;12311;50.866;4.332;2023-06-19T13:12:21;6.35;;;2.10;;
24151;SDS011;12311;50.866;4.332;2023-06-19T13:14:47;5.63;;;2.15;;
24151;SDS011;12311;50.866;4.332;2023-06-19T13:17:13;3.90;;;1.98;;
24151;SDS011;12311;50.866;4.332;2023-06-19T13:19:39;5.28;;;1.85;;
24151;SDS011;12311;50.866;4.332;2023-06-19T13:22:05;3.50;;;1.92;;
24151;SDS011;12311;50.866;4.332;2023-06-19T13:24:30;4.10;;;1.70;;
24151;SDS011;12311;50.866;4.332;2023-06-19T13:26:56;5.18;;;2.20;;
24151;SDS011;12311;50.866;4.332;2023-06-19T13:29:22;7.32;;;1.90;;
24151;SDS011;12311;50.866;4.332;2023-06-19T13:31:48;4.18;;;2.20;;
24151;SDS011;12311;50.866;4.332;2023-06-19T13:34:14;4.10;;;1.80;;
24151;SDS011;12311;50.866;4.332;2023-06-19T13:36:39;5.82;;;1.73;;
24151;SDS011;12311;50.866;4.332;2023-06-19T13:39:05;3.00;;;1.52;;
24151;SDS011;12311;50.866;4.332;2023-06-19T13:41:31;3.45;;;1.60;;
24151;SDS011;12311;50.866;4.332;2023-06-19T13:44:00;4.57;;;1.50;;
24151;SDS011;12311;50.866;4.332;2023-06-19T13:46:27;4.00;;;2.05;;
24151;SDS011;12311;50.866;4.332;2023-06-19T13:48:53;4.43;;;1.95;;
24151;SDS011;12311;50.866;4.332;2023-06-19T13:51:19;2.63;;;1.48;;
24151;SDS011;12311;50.866;4.332;2023-06-19T13:53:46;3.85;;;1.52;;
24151;SDS011;12311;50.866;4.332;2023-06-19T13:56:12;3.10;;;1.63;;
24151;SDS011;12311;50.866;4.332;2023-06-19T13:58:39;3.25;;;1.70;;
24151;SDS011;12311;50.866;4.332;2023-06-19T14:01:04;3.17;;;1.42;;
24151;SDS011;12311;50.866;4.332;2023-06-19T14:03:31;2.88;;;1.35;;
24151;SDS011;12311;50.866;4.332;2023-06-19T14:05:56;3.60;;;1.58;;
24151;SDS011;12311;50.866;4.332;2023-06-19T14:08:22;3.03;;;1.48;;
24151;SDS011;12311;50.866;4.332;2023-06-19T14:10:49;2.95;;;1.33;;
24151;SDS011;12311;50.866;4.332;2023-06-19T14:13:15;3.40;;;1.25;;
24151;SDS011;12311;50.866;4.332;2023-06-19T14:15:41;2.83;;;1.52;;
24151;SDS011;12311;50.866;4.332;2023-06-19T14:18:06;3.25;;;1.40;;
24151;SDS011;12311;50.866;4.332;2023-06-19T14:20:32;1.65;;;1.23;;
24151;SDS011;12311;50.866;4.332;2023-06-19T14:22:58;3.63;;;1.35;;
24151;SDS011;12311;50.866;4.332;2023-06-19T14:25:23;2.08;;;1.10;;
24151;SDS011;12311;50.866;4.332;2023-06-19T14:27:49;1.98;;;1.30;;
24151;SDS011;12311;50.866;4.332;2023-06-19T14:30:15;4.82;;;1.13;;
24151;SDS011;12311;50.866;4.332;2023-06-19T14:32:41;1.95;;;1.50;;
24151;SDS011;12311;50.866;4.332;2023-06-19T14:35:06;2.67;;;1.48;;
24151;SDS011;12311;50.866;4.332;2023-06-19T14:37:32;3.97;;;1.33;;
24151;SDS011;12311;50.866;4.332;2023-06-19T14:39:58;4.05;;;2.05;;
24151;SDS011;12311;50.866;4.332;2023-06-19T14:42:24;2.63;;;1.60;;
24151;SDS011;12311;50.866;4.332;2023-06-19T14:44:49;3.17;;;1.73;;
24151;SDS011;12311;50.866;4.332;2023-06-19T14:47:15;1.63;;;1.33;;
24151;SDS011;12311;50.866;4.332;2023-06-19T14:49:41;3.63;;;1.50;;
24151;SDS011;12311;50.866;4.332;2023-06-19T14:52:07;6.07;;;1.40;;
24151;SDS011;12311;50.866;4.332;2023-06-19T14:54:33;2.75;;;1.17;;
24151;SDS011;12311;50.866;4.332;2023-06-19T14:56:59;2.25;;;1.50;;
24151;SDS011;12311;50.866;4.332;2023-06-19T14:59:24;3.38;;;1.42;;
24151;SDS011;12311;50.866;4.332;2023-06-19T15:01:50;2.47;;;1.35;;